createdAt,value
2023-03-04T00:01:55.355Z,3.45
2023-03-04T00:05:17.050Z,3.24
2023-03-04T00:08:38.632Z,3.56
2023-03-04T00:12:02.451Z,3.73
2023-03-04T00:15:24.071Z,3.69
2023-03-04T00:18:47.835Z,3.78
2023-03-04T00:22:09.461Z,3.86
2023-03-04T00:25:33.651Z,3.48
2023-03-04T00:28:55.313Z,3.24
2023-03-04T00:32:18.337Z,3.17
2023-03-04T00:35:42.604Z,3.54
2023-03-04T00:39:06.672Z,3.22
2023-03-04T00:42:28.368Z,3.46
2023-03-04T00:45:50.191Z,3.38
2023-03-04T00:49:14.068Z,3.14
2023-03-04T00:52:35.634Z,3.28
2023-03-04T00:55:57.266Z,2.99
2023-03-04T00:59:18.865Z,2.75
2023-03-04T01:02:40.572Z,2.92
2023-03-04T01:06:02.323Z,3.14
2023-03-04T01:09:23.972Z,3.32
2023-03-04T01:12:45.596Z,3.17
2023-03-04T01:16:07.848Z,3.17
2023-03-04T01:19:31.715Z,3.24
2023-03-04T01:22:53.282Z,3.15
2023-03-04T01:26:14.857Z,3.13
2023-03-04T01:29:39.160Z,3.21
2023-03-04T01:33:00.736Z,3.43
2023-03-04T01:36:22.671Z,3.63
2023-03-04T01:39:46.555Z,3.86
2023-03-04T01:43:15.436Z,4.01
2023-03-04T01:46:37.491Z,4.37
2023-03-04T01:50:01.562Z,4.56
2023-03-04T01:53:25.584Z,4.83
2023-03-04T01:56:48.726Z,4.99
2023-03-04T02:00:27.406Z,5.03
2023-03-04T02:03:48.997Z,5.12
2023-03-04T02:07:10.644Z,5.17
2023-03-04T02:10:32.934Z,5.23
2023-03-04T02:13:54.636Z,5.28
2023-03-04T02:17:16.220Z,5.35
2023-03-04T02:21:00.333Z,5.54
2023-03-04T02:25:03.238Z,5.52
2023-03-04T02:28:24.818Z,5.38
2023-03-04T02:31:50.030Z,5.28
2023-03-04T02:35:18.383Z,5.33
2023-03-04T02:38:40.414Z,5.26
2023-03-04T02:42:03.678Z,5.31
2023-03-04T02:45:39.176Z,5.33
2023-03-04T02:49:00.768Z,5.20
2023-03-04T02:52:27.154Z,5.06
2023-03-04T02:55:48.925Z,4.80
2023-03-04T02:59:12.726Z,4.95
2023-03-04T03:02:34.282Z,5.01
2023-03-04T03:05:55.972Z,4.96
2023-03-04T03:09:20.535Z,4.96
2023-03-04T03:12:42.120Z,4.92
2023-03-04T03:16:06.112Z,4.96
2023-03-04T03:19:30.135Z,4.71
2023-03-04T03:22:54.282Z,4.92
2023-03-04T03:26:17.993Z,4.97
2023-03-04T03:29:39.536Z,4.93
2023-03-04T03:33:01.120Z,4.87
2023-03-04T03:36:22.715Z,4.87
2023-03-04T03:39:47.210Z,4.80
2023-03-04T03:43:09.054Z,4.48
2023-03-04T03:46:30.623Z,4.73
2023-03-04T03:49:56.684Z,4.68
2023-03-04T03:53:18.350Z,4.22
2023-03-04T03:56:40.119Z,3.72
2023-03-04T04:00:01.887Z,4.06
2023-03-04T04:03:29.455Z,4.14
2023-03-04T04:06:55.771Z,4.34
2023-03-04T04:10:20.661Z,4.48
2023-03-04T04:13:42.442Z,4.49
2023-03-04T04:17:04.034Z,4.55
2023-03-04T04:20:26.299Z,4.07
2023-03-04T04:23:50.155Z,4.22
2023-03-04T04:27:12.427Z,4.27
2023-03-04T04:30:34.008Z,4.31
2023-03-04T04:33:57.996Z,4.37
2023-03-04T04:37:19.616Z,4.37
2023-03-04T04:40:43.282Z,4.37
2023-03-04T04:44:05.177Z,4.21
2023-03-04T04:47:26.813Z,3.96
2023-03-04T04:50:57.148Z,4.08
2023-03-04T04:54:22.000Z,4.14
2023-03-04T04:57:43.653Z,4.25
2023-03-04T05:01:08.651Z,3.69
2023-03-04T05:04:32.492Z,3.34
2023-03-04T05:07:58.893Z,3.65
2023-03-04T05:11:27.968Z,3.85
2023-03-04T05:14:52.212Z,3.85
2023-03-04T05:18:17.268Z,3.90
2023-03-04T05:21:38.883Z,4.01
2023-03-04T05:25:00.451Z,4.07
2023-03-04T05:28:22.104Z,4.03
2023-03-04T05:31:45.914Z,4.04
2023-03-04T05:35:09.828Z,3.91
2023-03-04T05:38:34.081Z,4.30
2023-03-04T05:41:55.974Z,4.00
2023-03-04T05:45:20.014Z,4.21
2023-03-04T05:48:42.083Z,4.28
2023-03-04T05:52:03.817Z,4.16
2023-03-04T05:55:27.756Z,4.10
2023-03-04T05:58:51.793Z,4.03
2023-03-04T06:02:13.369Z,4.42
2023-03-04T06:05:36.968Z,4.66
2023-03-04T06:08:59.147Z,4.85
2023-03-04T06:12:20.921Z,4.82
2023-03-04T06:15:42.507Z,4.86
2023-03-04T06:19:04.166Z,4.69
2023-03-04T06:22:25.755Z,4.62
2023-03-04T06:25:51.092Z,4.77
2023-03-04T06:29:13.225Z,4.68
2023-03-04T06:32:37.030Z,4.51
2023-03-04T06:36:01.160Z,4.31
2023-03-04T06:39:22.948Z,4.24
2023-03-04T06:42:47.813Z,4.61
2023-03-04T06:46:09.656Z,4.82
2023-03-04T06:49:31.226Z,5.01
2023-03-04T06:52:52.879Z,4.85
2023-03-04T06:56:17.415Z,5.31
2023-03-04T06:59:43.761Z,5.56
2023-03-04T07:03:07.855Z,6.29
2023-03-04T07:06:31.769Z,7.23
2023-03-04T07:09:55.744Z,7.61
2023-03-04T07:13:17.324Z,7.27
2023-03-04T07:16:44.158Z,8.25
2023-03-04T07:20:06.503Z,8.53
2023-03-04T07:23:28.119Z,8.46
2023-03-04T07:26:49.661Z,8.99
2023-03-04T07:30:11.959Z,9.47
2023-03-04T07:33:36.500Z,10.22
2023-03-04T07:36:58.069Z,9.43
2023-03-04T07:40:21.387Z,10.01
2023-03-04T07:43:45.837Z,9.50
2023-03-04T07:47:07.449Z,8.78
2023-03-04T07:50:29.156Z,9.98
2023-03-04T07:53:53.756Z,10.31
2023-03-04T07:57:15.434Z,8.98
2023-03-04T08:00:41.422Z,9.05
2023-03-04T08:04:05.428Z,10.23
2023-03-04T08:07:29.742Z,10.88
2023-03-04T08:10:53.704Z,11.43
2023-03-04T08:14:15.374Z,11.01
2023-03-04T08:17:39.183Z,11.19
2023-03-04T08:21:00.808Z,10.18
2023-03-04T08:24:22.502Z,10.35
2023-03-04T08:27:48.663Z,11.38
2023-03-04T08:31:10.393Z,12.00
2023-03-04T08:34:34.374Z,12.51
2023-03-04T08:37:59.711Z,11.49
2023-03-04T08:41:27.392Z,11.63
2023-03-04T08:44:49.289Z,12.69
2023-03-04T08:48:13.890Z,11.75
2023-03-04T08:51:35.932Z,11.82
2023-03-04T08:55:00.228Z,11.70
2023-03-04T08:58:21.917Z,12.04
2023-03-04T09:01:46.222Z,11.95
2023-03-04T09:05:08.512Z,12.13
2023-03-04T09:08:32.504Z,12.23
2023-03-04T09:11:54.133Z,10.83
2023-03-04T09:15:17.930Z,11.12
2023-03-04T09:18:43.117Z,12.49
2023-03-04T09:22:06.957Z,13.40
2023-03-04T09:25:31.316Z,12.90
2023-03-04T09:28:57.440Z,12.59
2023-03-04T09:32:21.513Z,12.27
2023-03-04T09:35:43.999Z,13.21
2023-03-04T09:39:05.818Z,13.62
2023-03-04T09:42:35.389Z,13.34
2023-03-04T09:46:03.156Z,12.65
2023-03-04T09:49:28.151Z,13.38
2023-03-04T09:53:11.044Z,13.45
2023-03-04T09:56:36.619Z,13.34
2023-03-04T10:00:07.792Z,13.48
2023-03-04T10:03:52.215Z,13.21
2023-03-04T10:07:22.902Z,13.69
2023-03-04T10:10:49.218Z,13.31
2023-03-04T10:14:22.979Z,13.28
2023-03-04T10:17:48.227Z,13.92
2023-03-04T10:21:20.172Z,13.48
2023-03-04T10:24:41.760Z,14.16
2023-03-04T10:28:16.123Z,14.31
2023-03-04T10:31:38.605Z,14.38
2023-03-04T10:35:02.497Z,13.71
2023-03-04T10:38:24.801Z,14.43
2023-03-04T10:41:59.236Z,14.99
2023-03-04T10:45:27.870Z,14.48
2023-03-04T10:48:50.200Z,13.85
2023-03-04T10:52:35.375Z,14.12
2023-03-04T10:55:56.938Z,14.92
2023-03-04T10:59:53.705Z,15.05
2023-03-04T11:03:38.708Z,15.58
2023-03-04T11:07:08.808Z,15.47
2023-03-04T11:10:40.521Z,15.84
2023-03-04T11:14:13.199Z,15.71
2023-03-04T11:17:45.537Z,15.36
2023-03-04T11:21:12.830Z,15.71
2023-03-04T11:24:40.107Z,16.85
2023-03-04T11:28:11.601Z,16.55
2023-03-04T11:31:48.625Z,17.36
2023-03-04T11:35:13.468Z,17.21
2023-03-04T11:38:48.236Z,17.70
2023-03-04T11:42:20.672Z,16.59
2023-03-04T11:45:53.764Z,17.52
2023-03-04T11:49:27.601Z,16.95
2023-03-04T11:53:13.775Z,16.12
2023-03-04T11:56:42.421Z,16.63
2023-03-04T12:00:16.314Z,16.26
2023-03-04T12:03:51.924Z,16.69
2023-03-04T12:07:44.175Z,17.55
2023-03-04T12:11:24.339Z,16.69
2023-03-04T12:14:49.218Z,17.10
2023-03-04T12:18:32.088Z,17.82
2023-03-04T12:22:14.902Z,17.06
2023-03-04T12:25:42.525Z,17.07
2023-03-04T12:29:30.894Z,17.22
2023-03-04T12:33:21.309Z,16.16
2023-03-04T12:36:58.800Z,16.33
2023-03-04T12:40:45.148Z,17.12
2023-03-04T12:44:19.349Z,16.38
2023-03-04T12:48:08.798Z,15.95
2023-03-04T12:51:32.965Z,16.18
2023-03-04T12:55:04.516Z,15.85
2023-03-04T12:58:31.818Z,14.77
2023-03-04T13:01:53.916Z,14.58
2023-03-04T13:05:19.769Z,14.45
2023-03-04T13:08:51.573Z,14.65
2023-03-04T13:12:22.601Z,14.91
2023-03-04T13:16:02.351Z,14.95
2023-03-04T13:19:45.370Z,14.57
2023-03-04T13:23:10.200Z,14.48
2023-03-04T13:26:34.372Z,14.22
2023-03-04T13:29:56.041Z,13.98
2023-03-04T13:33:17.591Z,13.90
2023-03-04T13:37:04.499Z,13.93
2023-03-04T13:40:36.893Z,13.93
2023-03-04T13:43:59.566Z,14.20
2023-03-04T13:47:27.368Z,14.26
2023-03-04T13:50:50.615Z,14.16
2023-03-04T13:54:24.445Z,13.98
2023-03-04T13:57:50.310Z,14.09
2023-03-04T14:01:27.837Z,14.30
2023-03-04T14:05:00.882Z,14.13
2023-03-04T14:08:28.450Z,13.90
2023-03-04T14:11:54.558Z,14.10
2023-03-04T14:15:23.541Z,13.76
2023-03-04T14:18:45.127Z,13.69
2023-03-04T14:22:25.348Z,13.89
2023-03-04T14:25:51.786Z,13.81
2023-03-04T14:29:29.370Z,13.82
2023-03-04T14:32:54.670Z,13.99
2023-03-04T14:36:23.568Z,13.61
2023-03-04T14:39:45.641Z,13.57
2023-03-04T14:43:18.333Z,13.31
2023-03-04T14:46:51.264Z,13.37
2023-03-04T14:50:20.317Z,13.36
2023-03-04T14:53:57.794Z,13.33
2023-03-04T14:57:21.081Z,12.90
2023-03-04T15:00:43.218Z,12.95
2023-03-04T15:04:06.263Z,12.72
2023-03-04T15:07:34.609Z,12.89
2023-03-04T15:11:02.399Z,13.10
2023-03-04T15:14:43.375Z,12.56
2023-03-04T15:18:20.049Z,12.61
2023-03-04T15:21:41.930Z,12.62
2023-03-04T15:25:06.520Z,12.61
2023-03-04T15:28:36.356Z,12.44
2023-03-04T15:31:58.018Z,12.23
2023-03-04T15:35:20.816Z,11.95
2023-03-04T15:38:47.688Z,12.01
2023-03-04T15:42:13.276Z,12.11
2023-03-04T15:45:39.361Z,11.90
2023-03-04T15:49:01.220Z,11.55
2023-03-04T15:52:23.533Z,11.10
2023-03-04T15:55:46.592Z,11.35
2023-03-04T15:59:16.051Z,11.15
2023-03-04T16:02:37.624Z,10.90
2023-03-04T16:06:01.765Z,11.00
2023-03-04T16:09:23.348Z,10.90
2023-03-04T16:12:47.666Z,10.69
2023-03-04T16:16:13.564Z,10.33
2023-03-04T16:19:35.179Z,10.05
2023-03-04T16:23:02.324Z,10.08
2023-03-04T16:26:25.772Z,10.12
2023-03-04T16:29:47.339Z,10.16
2023-03-04T16:33:11.449Z,9.74
2023-03-04T16:36:35.852Z,9.74
2023-03-04T16:40:00.398Z,10.02
2023-03-04T16:43:25.490Z,10.18
2023-03-04T16:46:47.171Z,10.05
2023-03-04T16:50:18.143Z,10.02
2023-03-04T16:53:40.690Z,9.57
2023-03-04T16:57:02.759Z,9.74
2023-03-04T17:00:30.915Z,9.61
2023-03-04T17:03:55.777Z,9.80
2023-03-04T17:07:17.722Z,9.69
2023-03-04T17:10:39.512Z,9.80
2023-03-04T17:14:01.356Z,9.22
2023-03-04T17:17:25.641Z,9.53
2023-03-04T17:20:47.243Z,9.67
2023-03-04T17:24:12.048Z,9.51
2023-03-04T17:27:33.806Z,9.64
2023-03-04T17:30:57.666Z,9.30
2023-03-04T17:34:21.776Z,9.33
2023-03-04T17:37:45.558Z,9.26
2023-03-04T17:41:13.373Z,9.15
2023-03-04T17:44:34.996Z,9.02
2023-03-04T17:47:58.828Z,8.98
2023-03-04T17:51:29.238Z,8.99
2023-03-04T17:54:50.921Z,8.51
2023-03-04T17:58:12.468Z,8.74
2023-03-04T18:01:34.461Z,8.91
2023-03-04T18:04:56.040Z,8.91
2023-03-04T18:08:18.060Z,8.43
2023-03-04T18:11:40.796Z,8.40
2023-03-04T18:15:04.878Z,8.37
2023-03-04T18:18:30.921Z,8.43
2023-03-04T18:21:54.832Z,8.34
2023-03-04T18:25:16.954Z,8.39
2023-03-04T18:28:41.172Z,8.22
2023-03-04T18:32:02.885Z,7.79
2023-03-04T18:35:24.601Z,7.78
2023-03-04T18:38:46.195Z,7.96
2023-03-04T18:42:08.048Z,7.63
2023-03-04T18:45:29.793Z,7.96
2023-03-04T18:48:55.207Z,7.96
2023-03-04T18:52:16.785Z,7.88
2023-03-04T18:55:38.384Z,7.54
2023-03-04T18:59:00.265Z,7.57
2023-03-04T19:02:40.522Z,7.34
2023-03-04T19:06:02.126Z,7.57
2023-03-04T19:09:24.021Z,7.75
2023-03-04T19:12:45.642Z,7.38
2023-03-04T19:16:10.243Z,7.13
2023-03-04T19:19:34.441Z,7.02
2023-03-04T19:22:56.650Z,7.30
2023-03-04T19:26:18.240Z,7.26
2023-03-04T19:29:42.640Z,7.05
2023-03-04T19:33:04.307Z,6.85
2023-03-04T19:36:26.513Z,6.95
2023-03-04T19:39:49.173Z,7.26
2023-03-04T19:43:10.781Z,7.00
2023-03-04T19:46:32.387Z,7.27
2023-03-04T19:49:56.282Z,7.06
2023-03-04T19:53:20.347Z,6.88
2023-03-04T19:56:41.939Z,6.82
2023-03-04T20:00:06.440Z,6.96
2023-03-04T20:03:28.159Z,6.92
2023-03-04T20:06:51.162Z,7.03
2023-03-04T20:10:14.666Z,6.86
2023-03-04T20:13:36.229Z,6.34
2023-03-04T20:17:03.087Z,6.74
2023-03-04T20:20:29.245Z,6.72
2023-03-04T20:23:50.865Z,6.17
2023-03-04T20:27:18.041Z,6.37
2023-03-04T20:30:41.885Z,5.89
2023-03-04T20:34:03.537Z,6.09
2023-03-04T20:37:27.339Z,6.41
2023-03-04T20:40:50.942Z,5.61
2023-03-04T20:44:15.262Z,5.30
2023-03-04T20:47:39.729Z,5.89
2023-03-04T20:51:01.469Z,6.03
2023-03-04T20:54:25.508Z,5.81
2023-03-04T20:57:49.482Z,6.02
2023-03-04T21:01:11.229Z,6.16
2023-03-04T21:04:34.416Z,5.98
2023-03-04T21:07:56.065Z,6.10
2023-03-04T21:11:19.471Z,6.30
2023-03-04T21:14:44.924Z,6.48
2023-03-04T21:18:06.521Z,6.09
2023-03-04T21:21:29.399Z,5.59
2023-03-04T21:24:53.586Z,5.48
2023-03-04T21:28:18.913Z,5.75
2023-03-04T21:31:43.430Z,5.85
2023-03-04T21:35:05.526Z,5.76
2023-03-04T21:38:27.146Z,6.03
2023-03-04T21:41:49.196Z,5.92
2023-03-04T21:45:13.989Z,6.09
2023-03-04T21:48:36.582Z,6.14
2023-03-04T21:52:00.300Z,5.88
2023-03-04T21:55:26.612Z,5.41
2023-03-04T21:58:48.232Z,5.33
2023-03-04T22:02:15.885Z,4.64
2023-03-04T22:05:44.842Z,4.52
2023-03-04T22:09:06.607Z,5.00
2023-03-04T22:12:28.500Z,5.09
2023-03-04T22:15:50.054Z,5.07
2023-03-04T22:19:13.872Z,5.20
2023-03-04T22:22:39.971Z,5.03
2023-03-04T22:26:10.840Z,5.17
2023-03-04T22:29:32.524Z,5.17
2023-03-04T22:32:58.648Z,5.33
2023-03-04T22:36:22.916Z,5.50
2023-03-04T22:39:49.382Z,5.30
2023-03-04T22:43:11.028Z,5.06
2023-03-04T22:46:34.745Z,5.13
2023-03-04T22:49:56.342Z,5.20
2023-03-04T22:53:20.209Z,5.31
2023-03-04T22:56:41.910Z,5.27
2023-03-04T23:00:15.603Z,5.33
2023-03-04T23:03:37.990Z,5.19
2023-03-04T23:06:59.605Z,4.89
2023-03-04T23:10:24.882Z,5.06
2023-03-04T23:13:49.748Z,4.90
2023-03-04T23:17:11.350Z,4.83
2023-03-04T23:20:33.160Z,4.89
2023-03-04T23:23:54.732Z,5.16
2023-03-04T23:27:16.385Z,4.99
2023-03-04T23:30:38.186Z,5.22
2023-03-04T23:34:03.308Z,4.36
2023-03-04T23:37:26.969Z,4.52
2023-03-04T23:40:48.581Z,4.54
2023-03-04T23:44:13.218Z,4.85
2023-03-04T23:47:34.915Z,4.79
2023-03-04T23:50:59.199Z,4.51
2023-03-04T23:54:23.250Z,4.69
2023-03-04T23:57:46.003Z,4.30
